createdAt,value
2023-09-06T00:00:27.643Z,2.40
2023-09-06T00:02:55.717Z,2.20
2023-09-06T00:05:23.661Z,2.40
2023-09-06T00:07:53.094Z,2.17
2023-09-06T00:10:21.254Z,1.80
2023-09-06T00:12:49.041Z,2.03
2023-09-06T00:15:17.049Z,2.30
2023-09-06T00:17:44.826Z,2.27
2023-09-06T00:20:21.656Z,2.00
2023-09-06T00:22:58.339Z,2.73
2023-09-06T00:25:27.387Z,1.93
2023-09-06T00:27:58.264Z,2.60
2023-09-06T00:30:26.156Z,2.10
2023-09-06T00:32:54.505Z,2.90
2023-09-06T00:35:22.846Z,2.40
2023-09-06T00:37:50.582Z,1.83
2023-09-06T00:40:19.688Z,2.33
2023-09-06T00:42:48.570Z,2.40
2023-09-06T00:45:16.728Z,2.30
2023-09-06T00:47:45.476Z,2.13
2023-09-06T00:50:15.544Z,1.80
2023-09-06T00:52:43.961Z,2.43
2023-09-06T00:55:12.245Z,2.07
2023-09-06T00:57:43.848Z,2.30
2023-09-06T01:00:18.295Z,1.97
2023-09-06T01:02:46.468Z,2.13
2023-09-06T01:05:14.878Z,2.30
2023-09-06T01:07:47.707Z,2.17
2023-09-06T01:10:15.409Z,2.47
2023-09-06T01:12:44.538Z,2.10
2023-09-06T01:15:13.268Z,2.17
2023-09-06T01:17:44.302Z,2.43
2023-09-06T01:20:17.253Z,2.27
2023-09-06T01:22:52.949Z,2.77
2023-09-06T01:25:22.601Z,2.50
2023-09-06T01:27:50.953Z,2.10
2023-09-06T01:30:19.711Z,2.70
2023-09-06T01:32:47.565Z,2.63
2023-09-06T01:35:16.203Z,2.17
2023-09-06T01:37:44.130Z,2.33
2023-09-06T01:40:18.106Z,2.87
2023-09-06T01:42:47.756Z,2.60
2023-09-06T01:45:18.600Z,2.70
2023-09-06T01:47:47.986Z,2.43
2023-09-06T01:50:20.241Z,2.70
2023-09-06T01:52:48.577Z,2.73
2023-09-06T01:55:16.673Z,2.40
2023-09-06T01:57:44.526Z,2.83
2023-09-06T02:00:23.386Z,2.43
2023-09-06T02:02:51.138Z,3.23
2023-09-06T02:05:18.934Z,3.17
2023-09-06T02:07:47.071Z,2.30
2023-09-06T02:10:14.860Z,2.83
2023-09-06T02:12:42.815Z,2.73
2023-09-06T02:15:15.156Z,2.93
2023-09-06T02:17:44.460Z,3.10
2023-09-06T02:20:18.679Z,2.80
2023-09-06T02:22:48.936Z,3.07
2023-09-06T02:25:21.995Z,2.93
2023-09-06T02:27:50.228Z,3.37
2023-09-06T02:30:19.375Z,3.10
2023-09-06T02:32:48.758Z,3.70
2023-09-06T02:35:16.641Z,3.30
2023-09-06T02:37:44.403Z,3.77
2023-09-06T02:40:15.076Z,3.57
2023-09-06T02:42:43.144Z,3.70
2023-09-06T02:45:12.738Z,3.40
2023-09-06T02:47:49.264Z,3.20
2023-09-06T02:50:19.165Z,3.97
2023-09-06T02:52:47.334Z,3.23
2023-09-06T02:55:15.831Z,3.60
2023-09-06T02:57:43.641Z,3.43
2023-09-06T03:00:25.559Z,3.40
2023-09-06T03:02:56.914Z,3.43
2023-09-06T03:05:28.061Z,3.60
2023-09-06T03:07:56.385Z,3.43
2023-09-06T03:10:26.109Z,3.87
2023-09-06T03:12:58.125Z,3.90
2023-09-06T03:15:29.658Z,3.83
2023-09-06T03:18:06.296Z,3.30
2023-09-06T03:20:34.759Z,3.40
2023-09-06T03:23:18.101Z,3.70
2023-09-06T03:25:50.654Z,3.70
2023-09-06T03:28:20.211Z,3.73
2023-09-06T03:30:48.667Z,3.97
2023-09-06T03:33:18.800Z,3.87
2023-09-06T03:35:50.045Z,4.20
2023-09-06T03:38:19.251Z,4.70
2023-09-06T03:40:48.080Z,3.87
2023-09-06T03:43:16.987Z,4.17
2023-09-06T03:45:46.463Z,4.90
2023-09-06T03:48:15.843Z,4.30
2023-09-06T03:50:47.299Z,3.80
2023-09-06T03:53:16.334Z,4.27
2023-09-06T03:55:44.395Z,3.40
2023-09-06T03:58:13.576Z,4.10
2023-09-06T04:00:44.859Z,4.00
2023-09-06T04:03:24.727Z,4.10
2023-09-06T04:05:56.133Z,4.37
2023-09-06T04:08:29.547Z,4.40
2023-09-06T04:10:58.970Z,4.53
2023-09-06T04:13:26.846Z,5.10
2023-09-06T04:15:55.659Z,4.40
2023-09-06T04:18:25.117Z,5.03
2023-09-06T04:20:55.321Z,5.70
2023-09-06T04:23:23.239Z,5.60
2023-09-06T04:25:56.404Z,6.30
2023-09-06T04:28:28.955Z,7.10
2023-09-06T04:30:59.044Z,6.23
2023-09-06T04:33:30.386Z,5.93
2023-09-06T04:36:06.702Z,6.20
2023-09-06T04:38:34.547Z,6.57
2023-09-06T04:41:04.620Z,6.27
2023-09-06T04:43:39.444Z,6.20
2023-09-06T04:46:08.727Z,6.37
2023-09-06T04:48:41.749Z,5.70
2023-09-06T04:51:11.777Z,5.03
2023-09-06T04:53:40.547Z,5.60
2023-09-06T04:56:09.821Z,5.87
2023-09-06T04:58:43.757Z,5.80
2023-09-06T05:01:11.739Z,5.40
2023-09-06T05:03:41.583Z,5.00
2023-09-06T05:06:10.837Z,5.30
2023-09-06T05:08:38.593Z,6.00
2023-09-06T05:11:11.889Z,5.50
2023-09-06T05:13:41.087Z,5.27
2023-09-06T05:16:09.739Z,5.47
2023-09-06T05:18:40.012Z,6.10
2023-09-06T05:21:08.060Z,6.77
2023-09-06T05:23:40.094Z,8.13
2023-09-06T05:26:08.304Z,6.80
2023-09-06T05:28:44.070Z,5.53
2023-09-06T05:31:12.428Z,5.60
2023-09-06T05:33:45.194Z,5.27
2023-09-06T05:36:15.824Z,4.80
2023-09-06T05:38:45.722Z,3.97
2023-09-06T05:41:14.500Z,4.20
2023-09-06T05:43:44.910Z,4.40
2023-09-06T05:46:30.316Z,4.37
2023-09-06T05:49:03.994Z,3.97
2023-09-06T05:51:36.110Z,3.63
2023-09-06T05:54:06.829Z,3.47
2023-09-06T05:56:36.688Z,3.60
2023-09-06T05:59:04.927Z,3.73
2023-09-06T06:01:32.886Z,3.63
2023-09-06T06:04:00.804Z,3.10
2023-09-06T06:06:28.917Z,2.97
2023-09-06T06:08:58.537Z,2.90
2023-09-06T06:11:28.540Z,3.17
2023-09-06T06:14:04.886Z,3.03
2023-09-06T06:16:39.440Z,3.50
2023-09-06T06:19:07.318Z,2.80
2023-09-06T06:21:35.227Z,2.53
2023-09-06T06:24:03.316Z,3.10
2023-09-06T06:26:32.488Z,3.23
2023-09-06T06:29:00.532Z,2.90
2023-09-06T06:31:28.431Z,3.20
2023-09-06T06:33:56.804Z,3.00
2023-09-06T06:36:24.562Z,3.00
2023-09-06T06:38:52.327Z,3.03
2023-09-06T06:41:21.540Z,3.63
2023-09-06T06:43:50.856Z,3.00
2023-09-06T06:46:26.074Z,3.20
2023-09-06T06:48:54.098Z,3.10
2023-09-06T06:51:23.688Z,2.60
2023-09-06T06:53:51.416Z,3.50
2023-09-06T06:56:22.637Z,3.13
2023-09-06T06:58:51.970Z,2.70
2023-09-06T07:01:21.131Z,2.40
2023-09-06T07:03:49.283Z,2.67
2023-09-06T07:06:16.981Z,3.37
2023-09-06T07:08:44.648Z,3.20
2023-09-06T07:11:14.602Z,2.90
2023-09-06T07:13:43.448Z,2.73
2023-09-06T07:16:12.659Z,3.17
2023-09-06T07:18:40.469Z,3.10
2023-09-06T07:21:08.282Z,3.37
2023-09-06T07:23:36.092Z,3.00
2023-09-06T07:26:05.340Z,3.60
2023-09-06T07:28:40.490Z,3.40
2023-09-06T07:31:09.267Z,3.00
2023-09-06T07:33:39.801Z,3.47
2023-09-06T07:36:08.030Z,2.70
2023-09-06T07:38:36.161Z,2.87
2023-09-06T07:41:06.308Z,2.73
2023-09-06T07:43:36.442Z,3.30
2023-09-06T07:46:05.447Z,3.50
2023-09-06T07:48:34.076Z,2.70
2023-09-06T07:51:05.199Z,2.87
2023-09-06T07:53:33.894Z,3.57
2023-09-06T07:56:02.112Z,3.40
2023-09-06T07:58:31.266Z,3.00
2023-09-06T08:01:15.470Z,3.43
2023-09-06T08:03:46.991Z,3.47
2023-09-06T08:06:16.447Z,3.60
2023-09-06T08:08:44.570Z,3.57
2023-09-06T08:11:12.499Z,4.60
2023-09-06T08:13:42.507Z,3.17
2023-09-06T08:16:13.276Z,3.63
2023-09-06T08:18:41.935Z,3.20
2023-09-06T08:21:09.915Z,3.50
2023-09-06T08:23:39.098Z,4.20
2023-09-06T08:26:06.872Z,3.33
2023-09-06T08:28:34.612Z,3.50
2023-09-06T08:31:03.209Z,3.30
2023-09-06T08:33:31.517Z,3.43
2023-09-06T08:36:00.471Z,3.40
2023-09-06T08:38:28.724Z,3.90
2023-09-06T08:40:57.888Z,3.63
2023-09-06T08:43:30.752Z,3.30
2023-09-06T08:46:00.350Z,3.57
2023-09-06T08:48:29.706Z,4.17
2023-09-06T08:50:58.176Z,3.60
2023-09-06T08:53:26.610Z,3.47
2023-09-06T08:55:55.209Z,2.87
2023-09-06T08:58:24.853Z,3.50
2023-09-06T09:00:53.386Z,3.40
2023-09-06T09:03:21.669Z,4.10
2023-09-06T09:05:49.560Z,4.43
2023-09-06T09:08:17.326Z,3.87
2023-09-06T09:10:45.063Z,3.37
2023-09-06T09:13:13.975Z,3.40
2023-09-06T09:15:43.248Z,2.97
2023-09-06T09:18:11.840Z,3.33
2023-09-06T09:20:41.370Z,3.23
2023-09-06T09:23:15.264Z,3.07
2023-09-06T09:25:51.625Z,3.20
2023-09-06T09:28:19.846Z,3.60
2023-09-06T09:30:49.421Z,3.90
2023-09-06T09:33:17.374Z,3.80
2023-09-06T09:35:46.065Z,3.77
2023-09-06T09:38:13.889Z,4.20
2023-09-06T09:40:52.996Z,3.60
2023-09-06T09:43:21.556Z,4.00
2023-09-06T09:45:50.763Z,4.10
2023-09-06T09:48:19.073Z,3.87
2023-09-06T09:50:48.070Z,3.80
2023-09-06T09:53:22.418Z,3.70
2023-09-06T09:55:53.967Z,3.60
2023-09-06T09:58:22.389Z,3.80
2023-09-06T10:00:52.532Z,3.90
2023-09-06T10:03:22.462Z,3.60
2023-09-06T10:05:51.312Z,3.60
2023-09-06T10:08:21.618Z,3.80
2023-09-06T10:10:49.712Z,3.80
2023-09-06T10:13:17.474Z,3.60
2023-09-06T10:15:47.082Z,3.60
2023-09-06T10:18:16.398Z,3.63
2023-09-06T10:20:45.451Z,3.93
2023-09-06T10:23:13.754Z,3.60
2023-09-06T10:25:42.213Z,4.03
2023-09-06T10:28:10.308Z,3.50
2023-09-06T10:30:45.848Z,4.63
2023-09-06T10:33:56.405Z,3.33
2023-09-06T10:36:29.022Z,4.50
2023-09-06T10:39:19.701Z,3.13
2023-09-06T10:42:21.153Z,3.93
2023-09-06T10:45:14.175Z,3.87
2023-09-06T10:47:43.364Z,4.10
2023-09-06T10:50:18.709Z,3.40
2023-09-06T10:52:49.403Z,3.60
2023-09-06T10:55:20.444Z,3.63
2023-09-06T10:57:53.702Z,3.90
2023-09-06T11:00:26.717Z,3.30
2023-09-06T11:03:14.485Z,3.40
2023-09-06T11:05:47.712Z,3.93
2023-09-06T11:08:28.699Z,3.10
2023-09-06T11:11:02.050Z,3.00
2023-09-06T11:13:34.378Z,3.80
2023-09-06T11:16:03.600Z,3.20
2023-09-06T11:18:33.784Z,3.13
2023-09-06T11:21:03.166Z,3.87
2023-09-06T11:23:31.198Z,3.50
2023-09-06T11:25:59.574Z,3.50
2023-09-06T11:28:30.015Z,3.23
2023-09-06T11:30:59.857Z,3.73
2023-09-06T11:33:32.415Z,2.80
2023-09-06T11:36:04.503Z,3.20
2023-09-06T11:38:36.425Z,3.83
2023-09-06T11:41:10.062Z,3.33
2023-09-06T11:43:42.750Z,3.90
2023-09-06T11:46:13.844Z,3.43
2023-09-06T11:48:45.360Z,3.27
2023-09-06T11:51:15.190Z,3.20
2023-09-06T11:53:54.960Z,3.20
2023-09-06T11:56:28.012Z,2.50
2023-09-06T11:58:59.206Z,3.27
2023-09-06T12:01:27.844Z,3.13
2023-09-06T12:03:57.981Z,2.93
2023-09-06T12:06:27.956Z,2.90
2023-09-06T12:08:57.491Z,3.50
2023-09-06T12:11:26.257Z,3.07
2023-09-06T12:13:55.480Z,3.17
2023-09-06T12:16:24.748Z,2.87
2023-09-06T12:18:54.560Z,2.70
2023-09-06T12:21:23.395Z,3.37
2023-09-06T12:23:51.280Z,2.90
2023-09-06T12:26:21.772Z,3.60
2023-09-06T12:28:51.130Z,3.10
2023-09-06T12:31:18.945Z,2.80
2023-09-06T12:33:49.213Z,3.50
2023-09-06T12:36:18.413Z,3.63
2023-09-06T12:38:46.915Z,4.50
2023-09-06T12:41:14.969Z,3.30
2023-09-06T12:43:44.008Z,3.10
2023-09-06T12:46:13.175Z,3.87
2023-09-06T12:48:43.242Z,3.37
2023-09-06T12:51:11.747Z,3.60
2023-09-06T12:53:39.895Z,3.17
2023-09-06T12:56:09.297Z,3.00
2023-09-06T12:58:38.729Z,2.80
2023-09-06T13:01:11.574Z,3.60
2023-09-06T13:03:40.568Z,3.13
2023-09-06T13:06:09.578Z,3.03
2023-09-06T13:08:37.641Z,3.37
2023-09-06T13:11:05.943Z,3.40
2023-09-06T13:13:33.789Z,3.13
2023-09-06T13:16:01.575Z,3.27
2023-09-06T13:18:31.397Z,3.10
2023-09-06T13:21:00.548Z,2.73
2023-09-06T13:23:28.375Z,2.60
2023-09-06T13:25:56.179Z,3.17
2023-09-06T13:28:24.084Z,3.20
2023-09-06T13:30:51.893Z,3.10
2023-09-06T13:33:19.635Z,3.10
2023-09-06T13:35:50.034Z,3.00
2023-09-06T13:38:17.719Z,3.30
2023-09-06T13:40:45.590Z,3.03
2023-09-06T13:43:13.382Z,3.23
2023-09-06T13:45:41.334Z,2.87
2023-09-06T13:48:10.450Z,2.63
2023-09-06T13:50:38.368Z,3.07
2023-09-06T13:53:07.400Z,3.10
2023-09-06T13:55:35.245Z,3.00
2023-09-06T13:58:03.176Z,3.30
2023-09-06T14:00:31.044Z,3.40
2023-09-06T14:02:58.834Z,3.40
2023-09-06T14:05:26.800Z,2.63
2023-09-06T14:07:54.526Z,3.27
2023-09-06T14:10:23.741Z,3.13
2023-09-06T14:12:51.403Z,3.30
2023-09-06T14:15:19.123Z,3.00
2023-09-06T14:17:47.784Z,3.17
2023-09-06T14:20:17.119Z,3.23
2023-09-06T14:22:44.820Z,3.60
2023-09-06T14:25:12.871Z,2.83
2023-09-06T14:27:41.920Z,3.40
2023-09-06T14:30:10.527Z,2.93
2023-09-06T14:32:38.304Z,3.80
2023-09-06T14:35:07.057Z,3.70
2023-09-06T14:37:34.799Z,3.00
2023-09-06T14:40:03.237Z,3.13
2023-09-06T14:42:33.550Z,3.00
2023-09-06T14:45:03.152Z,3.50
2023-09-06T14:47:31.047Z,2.60
2023-09-06T14:49:59.008Z,3.70
2023-09-06T14:52:26.750Z,2.87
2023-09-06T14:54:54.407Z,3.37
2023-09-06T14:57:22.230Z,2.80
2023-09-06T14:59:50.068Z,2.80
2023-09-06T15:02:19.344Z,2.80
2023-09-06T15:04:47.173Z,2.50
2023-09-06T15:07:15.055Z,2.80
2023-09-06T15:09:42.935Z,2.90
2023-09-06T15:12:11.107Z,2.43
2023-09-06T15:14:39.835Z,2.93
2023-09-06T15:17:09.276Z,2.63
2023-09-06T15:19:38.435Z,2.87
2023-09-06T15:22:06.601Z,3.17
2023-09-06T15:24:35.084Z,2.60
2023-09-06T15:27:02.836Z,3.13
2023-09-06T15:29:30.560Z,3.07
2023-09-06T15:32:00.334Z,3.00
2023-09-06T15:34:28.629Z,2.50
2023-09-06T15:36:57.868Z,3.17
2023-09-06T15:39:25.638Z,3.20
2023-09-06T15:41:54.445Z,3.70
2023-09-06T15:44:22.585Z,2.83
2023-09-06T15:46:50.511Z,4.00
2023-09-06T15:49:18.790Z,2.40
2023-09-06T15:51:47.618Z,2.83
2023-09-06T15:54:16.755Z,2.80
2023-09-06T15:56:44.833Z,3.40
2023-09-06T15:59:13.032Z,2.97
2023-09-06T16:01:40.836Z,3.20
2023-09-06T16:04:08.648Z,2.80
2023-09-06T16:06:37.015Z,3.67
2023-09-06T16:09:05.484Z,3.20
2023-09-06T16:11:34.803Z,3.40
2023-09-06T16:14:04.783Z,2.70
2023-09-06T16:16:32.854Z,3.13
2023-09-06T16:19:00.567Z,2.80
2023-09-06T16:21:28.346Z,3.50
2023-09-06T16:23:57.607Z,2.90
2023-09-06T16:26:25.409Z,3.60
2023-09-06T16:28:54.576Z,3.00
2023-09-06T16:31:22.662Z,2.80
2023-09-06T16:33:50.503Z,3.17
2023-09-06T16:36:18.417Z,3.50
2023-09-06T16:38:46.196Z,3.00
2023-09-06T16:41:15.641Z,2.90
2023-09-06T16:43:43.370Z,2.67
2023-09-06T16:46:12.626Z,3.17
2023-09-06T16:48:40.434Z,3.30
2023-09-06T16:51:08.246Z,3.10
2023-09-06T16:53:35.953Z,2.80
2023-09-06T16:56:04.217Z,3.03
2023-09-06T16:58:32.059Z,3.20
2023-09-06T17:01:00.016Z,2.80
2023-09-06T17:03:29.171Z,3.40
2023-09-06T17:05:56.862Z,2.53
2023-09-06T17:08:25.177Z,2.60
2023-09-06T17:10:52.863Z,3.50
2023-09-06T17:13:20.586Z,3.10
2023-09-06T17:15:48.983Z,3.37
2023-09-06T17:18:16.834Z,3.00
2023-09-06T17:20:47.153Z,3.47
2023-09-06T17:23:17.219Z,3.80
2023-09-06T17:25:46.262Z,3.13
2023-09-06T17:28:14.008Z,2.70
2023-09-06T17:30:41.686Z,3.17
2023-09-06T17:33:14.701Z,3.20
2023-09-06T17:35:45.167Z,3.00
2023-09-06T17:38:15.557Z,3.30
2023-09-06T17:40:46.127Z,3.40
2023-09-06T17:43:15.594Z,3.33
2023-09-06T17:45:43.934Z,3.00
2023-09-06T17:48:13.409Z,3.50
2023-09-06T17:50:43.400Z,2.80
2023-09-06T17:53:13.936Z,2.90
2023-09-06T17:55:43.979Z,4.10
2023-09-06T17:58:11.885Z,4.10
2023-09-06T18:00:42.633Z,3.70
2023-09-06T18:03:14.311Z,3.63
2023-09-06T18:05:44.578Z,3.73
2023-09-06T18:08:15.781Z,4.17
2023-09-06T18:10:45.781Z,3.77
2023-09-06T18:13:15.179Z,3.13
2023-09-06T18:15:43.157Z,3.30
2023-09-06T18:18:14.148Z,3.57
2023-09-06T18:20:42.191Z,3.60
2023-09-06T18:23:10.215Z,3.80
2023-09-06T18:25:39.091Z,3.40
2023-09-06T18:28:09.465Z,3.47
2023-09-06T18:30:37.446Z,4.00
2023-09-06T18:33:07.646Z,3.30
2023-09-06T18:35:36.220Z,4.20
2023-09-06T18:38:04.841Z,3.90
2023-09-06T18:40:33.381Z,4.20
2023-09-06T18:43:01.180Z,3.83
2023-09-06T18:45:31.581Z,3.67
2023-09-06T18:48:00.752Z,3.50
2023-09-06T18:50:31.374Z,5.40
2023-09-06T18:52:59.103Z,4.13
2023-09-06T18:55:26.996Z,4.17
2023-09-06T18:58:05.592Z,3.70
2023-09-06T19:00:35.950Z,3.83
2023-09-06T19:03:06.637Z,4.17
2023-09-06T19:05:36.298Z,4.07
2023-09-06T19:08:04.584Z,3.90
2023-09-06T19:10:32.730Z,4.53
2023-09-06T19:13:00.390Z,4.00
2023-09-06T19:15:29.579Z,4.10
2023-09-06T19:17:58.659Z,4.33
2023-09-06T19:20:26.756Z,4.20
2023-09-06T19:22:54.732Z,3.97
2023-09-06T19:25:25.303Z,4.13
2023-09-06T19:27:53.584Z,4.47
2023-09-06T19:30:21.922Z,3.77
2023-09-06T19:32:49.769Z,4.60
2023-09-06T19:35:18.888Z,4.50
2023-09-06T19:37:46.666Z,4.10
2023-09-06T19:40:14.354Z,4.53
2023-09-06T19:42:42.059Z,4.37
2023-09-06T19:45:11.232Z,4.60
2023-09-06T19:47:39.488Z,4.30
2023-09-06T19:50:08.780Z,4.40
2023-09-06T19:52:37.893Z,4.70
2023-09-06T19:55:06.717Z,4.30
2023-09-06T19:57:34.913Z,4.63
2023-09-06T20:00:04.805Z,4.70
2023-09-06T20:02:42.097Z,5.03
2023-09-06T20:05:10.238Z,4.33
2023-09-06T20:07:39.444Z,4.60
2023-09-06T20:10:09.228Z,4.33
2023-09-06T20:12:36.939Z,5.00
2023-09-06T20:15:05.494Z,4.50
2023-09-06T20:17:33.349Z,4.63
2023-09-06T20:20:01.241Z,4.40
2023-09-06T20:22:29.068Z,4.90
2023-09-06T20:24:58.175Z,5.30
2023-09-06T20:27:25.857Z,4.50
2023-09-06T20:29:53.615Z,5.13
2023-09-06T20:32:21.518Z,4.97
2023-09-06T20:34:49.198Z,4.97
2023-09-06T20:37:16.944Z,5.40
2023-09-06T20:39:45.554Z,5.30
2023-09-06T20:42:14.686Z,5.70
2023-09-06T20:44:42.402Z,5.53
2023-09-06T20:47:10.224Z,5.03
2023-09-06T20:49:40.238Z,5.13
2023-09-06T20:52:08.447Z,5.33
2023-09-06T20:54:36.240Z,5.43
2023-09-06T20:57:04.155Z,5.37
2023-09-06T20:59:33.232Z,4.97
2023-09-06T21:02:00.984Z,5.00
2023-09-06T21:04:28.796Z,5.50
2023-09-06T21:06:56.592Z,4.93
2023-09-06T21:09:24.270Z,5.67
2023-09-06T21:11:51.967Z,5.30
2023-09-06T21:14:20.208Z,4.60
2023-09-06T21:16:49.435Z,4.63
2023-09-06T21:19:17.301Z,6.20
2023-09-06T21:21:45.031Z,5.80
2023-09-06T21:24:12.766Z,5.47
2023-09-06T21:26:40.610Z,6.27
2023-09-06T21:29:17.959Z,4.93
2023-09-06T21:31:51.271Z,5.53
2023-09-06T21:34:22.474Z,5.70
2023-09-06T21:36:50.533Z,6.00
2023-09-06T21:39:18.309Z,5.93
2023-09-06T21:41:46.666Z,5.53
2023-09-06T21:44:14.400Z,5.30
2023-09-06T21:46:42.133Z,6.10
2023-09-06T21:49:11.196Z,5.10
2023-09-06T21:51:39.256Z,6.33
2023-09-06T21:54:07.222Z,5.27
2023-09-06T21:56:35.020Z,5.20
2023-09-06T21:59:03.890Z,5.47
2023-09-06T22:01:35.891Z,5.40
2023-09-06T22:04:23.588Z,5.50
2023-09-06T22:07:11.087Z,4.60
2023-09-06T22:09:57.510Z,5.60
2023-09-06T22:12:43.854Z,5.93
2023-09-06T22:15:13.223Z,5.63
2023-09-06T22:17:41.415Z,5.30
2023-09-06T22:20:11.198Z,5.27
2023-09-06T22:22:38.932Z,5.83
2023-09-06T22:25:07.878Z,6.20
2023-09-06T22:27:36.391Z,5.03
2023-09-06T22:30:05.438Z,5.97
2023-09-06T22:32:33.269Z,6.00
2023-09-06T22:35:01.469Z,5.50
2023-09-06T22:37:34.229Z,5.40
2023-09-06T22:40:02.025Z,5.67
2023-09-06T22:42:29.861Z,5.47
2023-09-06T22:44:57.558Z,5.70
2023-09-06T22:47:25.603Z,5.67
2023-09-06T22:49:53.365Z,5.53
2023-09-06T22:52:24.015Z,4.90
2023-09-06T22:54:53.293Z,5.47
2023-09-06T22:57:21.416Z,5.17
2023-09-06T22:59:49.186Z,5.73
2023-09-06T23:02:16.906Z,5.23
2023-09-06T23:04:46.398Z,5.80
2023-09-06T23:07:14.574Z,5.63
2023-09-06T23:09:42.476Z,5.37
2023-09-06T23:12:14.842Z,4.97
2023-09-06T23:14:42.893Z,5.50
2023-09-06T23:17:13.652Z,5.30
2023-09-06T23:19:45.008Z,5.40
2023-09-06T23:22:14.572Z,6.23
2023-09-06T23:24:44.923Z,5.20
2023-09-06T23:27:18.883Z,5.50
2023-09-06T23:29:51.900Z,5.77
2023-09-06T23:32:20.973Z,5.20
2023-09-06T23:34:52.158Z,5.93
2023-09-06T23:37:20.344Z,5.60
2023-09-06T23:39:49.204Z,5.10
2023-09-06T23:42:20.563Z,6.33
2023-09-06T23:44:49.110Z,5.53
2023-09-06T23:47:17.558Z,6.20
2023-09-06T23:49:45.749Z,6.07
2023-09-06T23:52:13.987Z,5.70
2023-09-06T23:54:48.121Z,5.70
2023-09-06T23:57:18.945Z,6.77
2023-09-06T23:59:48.262Z,5.87
